Spencer, ID (83446)

5:33 AM MDT on July 24, 2016 (GMT -0600)
ARLFRD | | Change Station

Elev 5464 ft 44.24 °N, 112.20 °W | Updated 48 minutes ago

Clear
Clear
57 °F
Feels Like 57 °F
N
13
Wind Variable Wind from NE
Gusts 0.0 mph

Today
High -- | Low -- °F
--% Chance of Precip.
Yesterday
High -- | Low -- °F
Precip. -- in
Pressure 30.05 in
Visibility 10.0 miles
Clouds Clear
Dew Point 34 °F
Humidity 42%
Rainfall in
Snow Depth Not available.
6:07 AM 9:01 PM
Waning Gibbous, 77% visible
METAR KRXE 241053Z AUTO 04004KT 10SM CLR 09/02 A3016 RMK AO2 SLP174 T00890022
Pressure 30.05 in
Visibility 10.0 miles
Clouds Clear
Dew Point 34 °F
Humidity 42%
Rainfall in
Snow Depth Not available.
6:07 AM 9:01 PM
Waning Gibbous, 77% visible
METAR KRXE 241053Z AUTO 04004KT 10SM CLR 09/02 A3016 RMK AO2 SLP174 T00890022

10-Day Weather Forecast

Almanac

Astronomy

Jul. 24, 2016 Rise Set
Actual Time
Civil Twilight
Nautical Twilight
Astronomical Twilight
Moon
Length of Visible Light
Length of Day
Tomorrow will be .
, % of the Moon is Illuminated

Today's Extremes

State Highs State Lows

Community

WunderPhotos

Upload Photos

1,927,048 photos uploaded!

WunderBlog® & News

Nearby

Air Quality

  Air Quality AQ Index Pollutant
Not available.

Snow Depth

Station Depth Elevation

Earthquake Activity

City Distance Mag. Time & Date
Minimum magnitude displayed is 2.5.

Coastal Water Temperatures

Place Temperature

Stations

Nearby Weather Stations

Station Location Temp. Windchill Dew Point Humidity Wind Precip. Elev Updated Type
                   

Watches & Warnings

There are currently no watches in effect.